Time;durP1;ratioP1;P1;durP2;ratioP2;P2;SDS_P1;SDS_P2;PMS_P1;PMS_P2;Temp;Humidity;BMP_temperature;BMP_pressure;BME280_temperature;BME280_humidity;BME280_pressure;Samples;Min_cycle;Max_cycle;Signal;HPM_P1;HPM_P2
2022/09/02 00:00:13;;;;;;;;;;;;;;;;;;4974694;28;8515;-85
2022/09/02 00:02:38;;;;;;;;;;;;;;;;;;4975154;28;8605;-85
2022/09/02 00:05:05;;;;;;;;;;;;;;;;;;4974693;28;7220;-85
2022/09/02 00:07:31;;;;;;;;;;;;;;;;;;4975212;28;7027;-85
2022/09/02 00:09:59;;;;;;;;;;;;;;;;;;4975256;28;7257;-85
2022/09/02 00:12:25;;;;;;;;;;;;;;;;;;4974910;28;7423;-85
2022/09/02 00:14:50;;;;;;;;;;;;;;;;;;4974665;28;8414;-85
2022/09/02 00:17:16;;;;;;;;;;;;;;;;;;4974688;28;7083;-84
2022/09/02 00:19:41;;;;;;;;;;;;;;;;;;4978113;28;8555;-85
2022/09/02 00:22:07;;;;;;;;;;;;;;;;;;4979235;28;7005;-85
2022/09/02 00:24:32;;;;;;;;;;;;;;;;;;4978862;28;8485;-85
2022/09/02 00:26:58;;;;;;;;;;;;;;;;;;4978724;28;8447;-84
2022/09/02 00:29:26;;;;;;;;;;;;;;;;;;4979436;28;7394;-84
2022/09/02 00:31:52;;;;;;;;;;;;;;;;;;4978795;28;8648;-85
2022/09/02 00:34:17;;;;;;;;;;;;;;;;;;4978616;28;8292;-85
2022/09/02 00:36:43;;;;;;;;;;;;;;;;;;4978846;28;7025;-85
2022/09/02 00:39:09;;;;;;;;;;;;;;;;;;4978702;28;8438;-87
2022/09/02 00:41:37;;;;;;;;;;;;;;;;;;4978363;28;8387;-87
2022/09/02 00:44:05;;;;;;;;;;;;;;;;;;4978918;28;7170;-85
2022/09/02 00:46:32;;;;;;;;;;;;;;;;;;4978578;28;7181;-84
2022/09/02 00:49:30;;;;;;;;;;;;;;;;;;4978700;28;8424;-85
2022/09/02 00:52:25;;;;;;;;;;;;;;;;;;4957240;28;7457;-86
2022/09/02 00:54:53;;;;;;;;;;;;;;;;;;4944957;28;7045;-86
2022/09/02 00:57:22;;;;;;;;;;;;;;;;;;4978302;28;9327;-86
2022/09/02 00:59:48;;;;;;;;;;;;;;;;;;4978354;28;7217;-85
2022/09/02 01:02:14;;;;;;;;;;;;;;;;;;4994289;28;8428;-88
2022/09/02 01:04:41;;;;;;;;;;;;;;;;;;4978193;28;7033;-86
2022/09/02 01:07:08;;;;;;;;;;;;;;;;;;4978473;28;7080;-86
2022/09/02 01:09:35;;;;;;;;;;;;;;;;;;4977698;28;6855;-86
2022/09/02 01:12:02;;;;;;;;;;;;;;;;;;4980338;28;7342;-85
2022/09/02 01:14:28;;;;;;;;;;;;;;;;;;4977725;28;7457;-87
2022/09/02 01:16:58;;;;;;;;;;;;;;;;;;4978039;28;7336;-85
2022/09/02 01:19:32;;;;;;;;;;;;;;;;;;4977598;28;7165;-86
2022/09/02 01:21:57;;;;;;;;;;;;;;;;;;4978216;28;7166;-85
2022/09/02 01:24:27;;;;;;;;;;;;;;;;;;4978455;28;8726;-86
2022/09/02 01:26:54;;;;;;;;;;;;;;;;;;4977766;28;7169;-86
2022/09/02 01:29:21;;;;;;;;;;;;;;;;;;4977265;28;7458;-84
2022/09/02 01:31:46;;;;;;;;;;;;;;;;;;4977120;28;7448;-86
2022/09/02 01:34:12;;;;;;;;;;;;;;;;;;4977688;28;8529;-85
2022/09/02 01:36:40;;;;;;;;;;;;;;;;;;4977941;28;8129;-86
2022/09/02 01:39:07;;;;;;;;;;;;;;;;;;4977163;28;8488;-86
2022/09/02 01:41:32;;;;;;;;;;;;;;;;;;4977312;28;8396;-86
2022/09/02 01:43:57;;;;;;;;;;;;;;;;;;4977523;28;8595;-84
2022/09/02 01:46:23;;;;;;;;;;;;;;;;;;4977774;28;6934;-85
2022/09/02 01:48:50;;;;;;;;;;;;;;;;;;4977616;28;7119;-86
2022/09/02 01:51:18;;;;;;;;;;;;;;;;;;4977462;28;8742;-85
2022/09/02 01:53:44;;;;;;;;;;;;;;;;;;4977488;28;8917;-86
2022/09/02 01:56:10;;;;;;;;;;;;;;;;;;4976976;28;7027;-86
2022/09/02 01:58:35;;;;;;;;;;;;;;;;;;4977781;28;8776;-86
2022/09/02 02:01:02;;;;;;;;;;;;;;;;;;4977272;28;7121;-85
2022/09/02 02:03:28;;;;;;;;;;;;;;;;;;4977036;28;7146;-86
2022/09/02 02:05:54;;;;;;;;;;;;;;;;;;4977380;28;8418;-86
2022/09/02 02:08:21;;;;;;;;;;;;;;;;;;4976965;28;8409;-86
2022/09/02 02:10:47;;;;;;;;;;;;;;;;;;4977047;28;7246;-83
2022/09/02 02:13:12;;;;;;;;;;;;;;;;;;4976969;28;8406;-83
2022/09/02 02:15:40;;;;;;;;;;;;;;;;;;4976818;28;8466;-85
2022/09/02 02:18:06;;;;;;;;;;;;;;;;;;4977064;28;8330;-87
2022/09/02 02:20:31;;;;;;;;;;;;;;;;;;4976438;28;8376;-87
2022/09/02 02:22:57;;;;;;;;;;;;;;;;;;4976768;28;8363;-86
2022/09/02 02:25:23;;;;;;;;;;;;;;;;;;4976398;28;6814;-87
2022/09/02 02:27:48;;;;;;;;;;;;;;;;;;4976632;28;7018;-85
2022/09/02 02:30:15;;;;;;;;;;;;;;;;;;4976680;28;8293;-86
2022/09/02 02:32:42;;;;;;;;;;;;;;;;;;4976414;28;7030;-86
2022/09/02 02:35:08;;;;;;;;;;;;;;;;;;4976587;28;7162;-87
2022/09/02 02:37:33;;;;;;;;;;;;;;;;;;4976347;28;8329;-87
2022/09/02 02:39:59;;;;;;;;;;;;;;;;;;4976412;28;8605;-87
2022/09/02 02:42:24;;;;;;;;;;;;;;;;;;4975984;28;8403;-86
2022/09/02 02:44:50;;;;;;;;;;;;;;;;;;4976225;28;7050;-88
2022/09/02 02:47:16;;;;;;;;;;;;;;;;;;4976419;28;7147;-86
2022/09/02 02:49:42;;;;;;;;;;;;;;;;;;4976266;28;7034;-86
2022/09/02 02:52:09;;;;;;;;;;;;;;;;;;4976456;28;7409;-86
2022/09/02 02:54:35;;;;;;;;;;;;;;;;;;4976200;28;8613;-87
2022/09/02 02:57:01;;;;;;;;;;;;;;;;;;4975888;28;7775;-86
2022/09/02 02:59:28;;;;;;;;;;;;;;;;;;4976279;28;8331;-84
2022/09/02 03:01:54;;;;;;;;;;;;;;;;;;4975647;28;8388;-87
2022/09/02 03:04:19;;;;;;;;;;;;;;;;;;4976043;28;8479;-86
2022/09/02 03:06:45;;;;;;;;;;;;;;;;;;4976161;28;7138;-87
2022/09/02 03:09:10;;;;;;;;;;;;;;;;;;4975993;28;7140;-87
2022/09/02 03:11:36;;;;;;;;;;;;;;;;;;4975912;28;8776;-85
2022/09/02 03:14:02;;;;;;;;;;;;;;;;;;4975446;28;7000;-86
2022/09/02 03:16:27;;;;;;;;;;;;;;;;;;4975579;28;8422;-84
2022/09/02 03:18:54;;;;;;;;;;;;;;;;;;4976700;28;8405;-86
2022/09/02 03:21:19;;;;;;;;;;;;;;;;;;4979311;28;8615;-86
2022/09/02 03:23:46;;;;;;;;;;;;;;;;;;4979017;28;7219;-86
2022/09/02 03:26:14;;;;;;;;;;;;;;;;;;4978744;28;8425;-85
2022/09/02 03:28:40;;;;;;;;;;;;;;;;;;4978329;28;8445;-87
2022/09/02 03:31:05;;;;;;;;;;;;;;;;;;4978719;28;7180;-86
2022/09/02 03:33:31;;;;;;;;;;;;;;;;;;4978913;28;7164;-87
2022/09/02 03:35:57;;;;;;;;;;;;;;;;;;4978920;28;8447;-87
2022/09/02 03:38:22;;;;;;;;;;;;;;;;;;4978555;28;8404;-87
2022/09/02 03:40:48;;;;;;;;;;;;;;;;;;4979404;28;7142;-87
2022/09/02 03:43:13;;;;;;;;;;;;;;;;;;4978457;28;7222;-88
2022/09/02 03:45:40;;;;;;;;;;;;;;;;;;4978235;28;7158;-85
2022/09/02 03:48:07;;;;;;;;;;;;;;;;;;4978206;28;7274;-86
2022/09/02 03:50:35;;;;;;;;;;;;;;;;;;4978100;28;8798;-87
2022/09/02 03:53:01;;;;;;;;;;;;;;;;;;4977880;28;8316;-86
2022/09/02 03:55:28;;;;;;;;;;;;;;;;;;4978322;28;7365;-86
2022/09/02 03:57:53;;;;;;;;;;;;;;;;;;4978863;28;7165;-86
2022/09/02 04:00:23;;;;;;;;;;;;;;;;;;4978500;28;8061;-86
2022/09/02 04:02:49;;;;;;;;;;;;;;;;;;4978939;28;7252;-86
2022/09/02 04:05:15;;;;;;;;;;;;;;;;;;4978600;28;7060;-86
2022/09/02 04:07:40;;;;;;;;;;;;;;;;;;4978284;28;7245;-87
2022/09/02 04:10:07;;;;;;;;;;;;;;;;;;4979045;28;7236;-87
2022/09/02 04:12:34;;;;;;;;;;;;;;;;;;4978964;28;7133;-87
2022/09/02 04:14:59;;;;;;;;;;;;;;;;;;4978161;28;8400;-85
2022/09/02 04:17:24;;;;;;;;;;;;;;;;;;4979151;28;7024;-86
2022/09/02 04:19:53;;;;;;;;;;;;;;;;;;4974306;28;7082;-86
2022/09/02 04:22:18;;;;;;;;;;;;;;;;;;4975065;28;7177;-86
2022/09/02 04:24:44;;;;;;;;;;;;;;;;;;4974874;28;8520;-87
2022/09/02 04:27:09;;;;;;;;;;;;;;;;;;4974885;28;8437;-86
2022/09/02 04:29:35;;;;;;;;;;;;;;;;;;4974641;28;7305;-85
2022/09/02 04:32:00;;;;;;;;;;;;;;;;;;4974572;28;8404;-85
2022/09/02 04:34:26;;;;;;;;;;;;;;;;;;4974726;28;7157;-86
2022/09/02 04:36:52;;;;;;;;;;;;;;;;;;4974711;28;8791;-86
2022/09/02 04:39:18;;;;;;;;;;;;;;;;;;4974763;28;7138;-86
2022/09/02 04:41:44;;;;;;;;;;;;;;;;;;4974562;28;7171;-86
2022/09/02 04:44:09;;;;;;;;;;;;;;;;;;4974922;28;7138;-86
2022/09/02 04:46:35;;;;;;;;;;;;;;;;;;4974986;28;8628;-87
2022/09/02 04:49:02;;;;;;;;;;;;;;;;;;4974629;28;7079;-85
2022/09/02 04:51:27;;;;;;;;;;;;;;;;;;4975462;28;7172;-88
2022/09/02 04:53:53;;;;;;;;;;;;;;;;;;4974636;28;8419;-86
2022/09/02 04:56:22;;;;;;;;;;;;;;;;;;4974947;28;7219;-87
2022/09/02 04:58:51;;;;;;;;;;;;;;;;;;4975305;28;7146;-87
2022/09/02 05:01:22;;;;;;;;;;;;;;;;;;4974258;28;7025;-88
2022/09/02 05:03:48;;;;;;;;;;;;;;;;;;4974832;28;6994;-86
2022/09/02 05:06:16;;;;;;;;;;;;;;;;;;4977737;28;8465;-85
2022/09/02 05:08:42;;;;;;;;;;;;;;;;;;4978242;28;7148;-86
2022/09/02 05:11:09;;;;;;;;;;;;;;;;;;4977994;28;7021;-86
2022/09/02 05:13:35;;;;;;;;;;;;;;;;;;4978350;28;8421;-86
2022/09/02 05:16:01;;;;;;;;;;;;;;;;;;4977968;28;7144;-85
2022/09/02 05:18:27;;;;;;;;;;;;;;;;;;4978307;28;8453;-86
2022/09/02 05:20:52;;;;;;;;;;;;;;;;;;4977598;28;7252;-86
2022/09/02 05:23:18;;;;;;;;;;;;;;;;;;4977482;28;7135;-86
2022/09/02 05:25:43;;;;;;;;;;;;;;;;;;4977491;28;7150;-87
2022/09/02 05:28:10;;;;;;;;;;;;;;;;;;4977554;28;7003;-85
2022/09/02 05:30:37;;;;;;;;;;;;;;;;;;4977572;28;8434;-85
2022/09/02 05:33:03;;;;;;;;;;;;;;;;;;4977461;28;7256;-86
2022/09/02 05:35:29;;;;;;;;;;;;;;;;;;4978546;28;7146;-86
2022/09/02 05:37:55;;;;;;;;;;;;;;;;;;4977807;28;8292;-86
2022/09/02 05:40:21;;;;;;;;;;;;;;;;;;4977838;28;7150;-86
2022/09/02 05:42:47;;;;;;;;;;;;;;;;;;4977684;28;7564;-86
2022/09/02 05:45:13;;;;;;;;;;;;;;;;;;4977575;28;8410;-86
2022/09/02 05:47:39;;;;;;;;;;;;;;;;;;4980706;28;7129;-84
2022/09/02 05:50:05;;;;;;;;;;;;;;;;;;4984867;28;7252;-87
2022/09/02 05:52:31;;;;;;;;;;;;;;;;;;4984826;28;8400;-84
2022/09/02 05:54:57;;;;;;;;;;;;;;;;;;4987433;28;7152;-86
2022/09/02 05:57:23;;;;;;;;;;;;;;;;;;4987236;28;9362;-84
2022/09/02 05:59:54;;;;;;;;;;;;;;;;;;4983086;28;8506;-86
2022/09/02 06:02:21;;;;;;;;;;;;;;;;;;4996434;28;9069;-86
2022/09/02 06:04:48;;;;;;;;;;;;;;;;;;4997209;28;7177;-86
2022/09/02 06:07:15;;;;;;;;;;;;;;;;;;4994748;28;7161;-84
2022/09/02 06:09:43;;;;;;;;;;;;;;;;;;4987225;28;9384;-85
2022/09/02 06:12:10;;;;;;;;;;;;;;;;;;4987818;28;7350;-85
2022/09/02 06:14:36;;;;;;;;;;;;;;;;;;4996317;28;7189;-84
2022/09/02 06:17:03;;;;;;;;;;;;;;;;;;4995974;28;9191;-83
2022/09/02 06:19:31;;;;;;;;;;;;;;;;;;4996051;28;7189;-83
2022/09/02 06:21:58;;;;;;;;;;;;;;;;;;4996093;28;7444;-83
2022/09/02 06:24:24;;;;;;;;;;;;;;;;;;4996521;28;8824;-85
2022/09/02 06:26:52;;;;;;;;;;;;;;;;;;4996109;28;7327;-84
2022/09/02 06:29:18;;;;;;;;;;;;;;;;;;4995974;28;7118;-85
2022/09/02 06:31:46;;;;;;;;;;;;;;;;;;4992874;28;8698;-84
2022/09/02 06:34:12;;;;;;;;;;;;;;;;;;4995260;28;9106;-85
2022/09/02 06:36:39;;;;;;;;;;;;;;;;;;4993054;28;8444;-85
2022/09/02 06:39:04;;;;;;;;;;;;;;;;;;4986727;28;8610;-86
2022/09/02 06:41:32;;;;;;;;;;;;;;;;;;4985302;28;8321;-86
2022/09/02 06:43:59;;;;;;;;;;;;;;;;;;4995577;28;7475;-84
2022/09/02 06:46:28;;;;;;;;;;;;;;;;;;4995695;28;9366;-85
2022/09/02 06:48:53;;;;;;;;;;;;;;;;;;4995782;28;7111;-86
2022/09/02 06:51:25;;;;;;;;;;;;;;;;;;4995554;28;7986;-83
2022/09/02 06:53:50;;;;;;;;;;;;;;;;;;4995432;28;7172;-85
2022/09/02 06:56:17;;;;;;;;;;;;;;;;;;4995724;28;8396;-87
2022/09/02 06:58:42;;;;;;;;;;;;;;;;;;4994903;28;8500;-86
2022/09/02 07:01:08;;;;;;;;;;;;;;;;;;4994209;28;8516;-84
2022/09/02 07:06:18;;;;;;;;;;;;;;;;;;4994968;28;7048;-86
2022/09/02 07:08:44;;;;;;;;;;;;;;;;;;4993517;28;7061;-85
2022/09/02 07:11:19;;;;;;;;;;;;;;;;;;4993355;28;7093;-85
2022/09/02 07:13:45;;;;;;;;;;;;;;;;;;4993807;28;8494;-87
2022/09/02 07:16:11;;;;;;;;;;;;;;;;;;4995125;28;8495;-87
2022/09/02 07:18:36;;;;;;;;;;;;;;;;;;4994922;28;8615;-87
2022/09/02 07:21:02;;;;;;;;;;;;;;;;;;4994689;28;8552;-87
2022/09/02 07:23:28;;;;;;;;;;;;;;;;;;4994785;28;8537;-87
2022/09/02 07:25:54;;;;;;;;;;;;;;;;;;4994837;28;7171;-86
2022/09/02 07:28:22;;;;;;;;;;;;;;;;;;4994636;28;7269;-86
2022/09/02 07:30:48;;;;;;;;;;;;;;;;;;4995410;28;7205;-85
2022/09/02 07:33:14;;;;;;;;;;;;;;;;;;4995166;28;7072;-86
2022/09/02 07:35:41;;;;;;;;;;;;;;;;;;4995239;28;7059;-86
2022/09/02 07:38:10;;;;;;;;;;;;;;;;;;4995265;28;7315;-86
2022/09/02 07:40:38;;;;;;;;;;;;;;;;;;4994754;28;7171;-86
2022/09/02 07:43:05;;;;;;;;;;;;;;;;;;4994681;28;7159;-86
2022/09/02 07:45:31;;;;;;;;;;;;;;;;;;4994949;28;8406;-86
2022/09/02 07:47:57;;;;;;;;;;;;;;;;;;4994723;28;8429;-85
2022/09/02 07:50:25;;;;;;;;;;;;;;;;;;4994398;28;7160;-87
2022/09/02 07:52:52;;;;;;;;;;;;;;;;;;4994611;28;7170;-88
2022/09/02 07:55:18;;;;;;;;;;;;;;;;;;4994673;28;8836;-86
2022/09/02 07:57:45;;;;;;;;;;;;;;;;;;4992776;28;7227;-85
2022/09/02 08:00:12;;;;;;;;;;;;;;;;;;4990976;28;8479;-84
2022/09/02 08:02:38;;;;;;;;;;;;;;;;;;4994833;28;7087;-86
2022/09/02 08:05:04;;;;;;;;;;;;;;;;;;4994362;28;8408;-85
2022/09/02 08:07:30;;;;;;;;;;;;;;;;;;4994249;28;7183;-86
2022/09/02 08:09:55;;;;;;;;;;;;;;;;;;4994246;28;8398;-86
2022/09/02 08:12:21;;;;;;;;;;;;;;;;;;4994449;28;7238;-86
2022/09/02 08:14:46;;;;;;;;;;;;;;;;;;4994538;28;7602;-84
2022/09/02 08:17:12;;;;;;;;;;;;;;;;;;4994623;28;7176;-86
2022/09/02 08:19:37;;;;;;;;;;;;;;;;;;4994120;28;8651;-85
2022/09/02 08:22:05;;;;;;;;;;;;;;;;;;4994257;28;8452;-85
2022/09/02 08:24:31;;;;;;;;;;;;;;;;;;4995119;28;7447;-86
2022/09/02 08:26:57;;;;;;;;;;;;;;;;;;4994610;28;8752;-85
2022/09/02 08:29:23;;;;;;;;;;;;;;;;;;4994297;28;7185;-86
2022/09/02 08:31:49;;;;;;;;;;;;;;;;;;4993999;28;7159;-85
2022/09/02 08:34:15;;;;;;;;;;;;;;;;;;4993909;28;8663;-85
2022/09/02 08:36:42;;;;;;;;;;;;;;;;;;4994398;28;7167;-88
2022/09/02 08:39:08;;;;;;;;;;;;;;;;;;4995163;28;8363;-86
2022/09/02 08:41:43;;;;;;;;;;;;;;;;;;5000099;28;8475;-86
2022/09/02 08:44:11;;;;;;;;;;;;;;;;;;5014711;28;7059;-85
2022/09/02 08:46:37;;;;;;;;;;;;;;;;;;4997567;28;8545;-86
2022/09/02 08:49:07;;;;;;;;;;;;;;;;;;4997785;28;7205;-86
2022/09/02 08:51:37;;;;;;;;;;;;;;;;;;4996738;28;7204;-84
2022/09/02 08:54:22;;;;;;;;;;;;;;;;;;4997510;28;8739;-84
2022/09/02 08:56:50;;;;;;;;;;;;;;;;;;4990546;28;8440;-84
2022/09/02 08:59:18;;;;;;;;;;;;;;;;;;4995575;28;7111;-84
2022/09/02 09:01:47;;;;;;;;;;;;;;;;;;4996388;28;8728;-85
2022/09/02 09:04:31;;;;;;;;;;;;;;;;;;5013184;28;8471;-86
2022/09/02 09:07:12;;;;;;;;;;;;;;;;;;4996885;28;8564;-85
2022/09/02 09:09:40;;;;;;;;;;;;;;;;;;4997269;28;8654;-85
2022/09/02 09:12:12;;;;;;;;;;;;;;;;;;5013303;28;7207;-85
2022/09/02 09:14:50;;;;;;;;;;;;;;;;;;5013796;28;7196;-86
2022/09/02 09:17:38;;;;;;;;;;;;;;;;;;5013561;28;7194;-86
2022/09/02 09:20:11;;;;;;;;;;;;;;;;;;4981341;28;8511;-85
2022/09/02 09:22:39;;;;;;;;;;;;;;;;;;4977934;28;8469;-83
2022/09/02 09:25:11;;;;;;;;;;;;;;;;;;4977520;28;8515;-85
2022/09/02 09:27:37;;;;;;;;;;;;;;;;;;4978221;28;8437;-84
2022/09/02 09:30:05;;;;;;;;;;;;;;;;;;4977356;28;8837;-85
2022/09/02 09:32:42;;;;;;;;;;;;;;;;;;4977734;28;9018;-86
2022/09/02 09:35:09;;;;;;;;;;;;;;;;;;4978184;28;9064;-86
2022/09/02 09:37:39;;;;;;;;;;;;;;;;;;4977892;28;8490;-84
2022/09/02 09:40:20;;;;;;;;;;;;;;;;;;4977343;28;8857;-84
2022/09/02 09:42:55;;;;;;;;;;;;;;;;;;4993403;28;6845;-85
2022/09/02 09:45:32;;;;;;;;;;;;;;;;;;4977811;28;9016;-87
2022/09/02 09:48:14;;;;;;;;;;;;;;;;;;4977450;28;7091;-87
2022/09/02 09:50:40;;;;;;;;;;;;;;;;;;4976663;28;7196;-87
2022/09/02 09:53:19;;;;;;;;;;;;;;;;;;4977091;28;7203;-87
2022/09/02 09:56:05;;;;;;;;;;;;;;;;;;4993354;28;8505;-86
2022/09/02 09:58:34;;;;;;;;;;;;;;;;;;4977490;28;8735;-87
2022/09/02 10:01:16;;;;;;;;;;;;;;;;;;4977399;28;9020;-88
2022/09/02 10:03:47;;;;;;;;;;;;;;;;;;4977830;28;7545;-87
2022/09/02 10:06:24;;;;;;;;;;;;;;;;;;4977059;28;8507;-86
2022/09/02 10:08:52;;;;;;;;;;;;;;;;;;4977506;28;8351;-86
2022/09/02 10:11:23;;;;;;;;;;;;;;;;;;4977191;28;8476;-85
2022/09/02 10:13:48;;;;;;;;;;;;;;;;;;4977021;28;8478;-84
2022/09/02 10:16:35;;;;;;;;;;;;;;;;;;4976656;28;7034;-85
2022/09/02 10:19:19;;;;;;;;;;;;;;;;;;4980059;28;8444;-85
2022/09/02 10:21:51;;;;;;;;;;;;;;;;;;5015889;28;7047;-86
2022/09/02 10:24:30;;;;;;;;;;;;;;;;;;4999410;28;8483;-86
2022/09/02 10:26:59;;;;;;;;;;;;;;;;;;4999103;28;7089;-86
2022/09/02 10:29:24;;;;;;;;;;;;;;;;;;4998565;28;8390;-94
2022/09/02 10:32:09;;;;;;;;;;;;;;;;;;4999287;28;8447;-92
2022/09/02 10:34:53;;;;;;;;;;;;;;;;;;5015178;28;7159;-91
2022/09/02 10:37:22;;;;;;;;;;;;;;;;;;5014767;28;8334;-85
2022/09/02 10:40:27;;;;;;;;;;;;;;;;;;4998685;28;7075;-85
2022/09/02 10:42:56;;;;;;;;;;;;;;;;;;4959989;28;8582;-85
2022/09/02 10:45:33;;;;;;;;;;;;;;;;;;4959259;28;7194;-86
2022/09/02 10:48:17;;;;;;;;;;;;;;;;;;4959464;28;8818;-86
2022/09/02 10:50:48;;;;;;;;;;;;;;;;;;4959034;28;8783;-86
2022/09/02 10:53:24;;;;;;;;;;;;;;;;;;4975220;28;8859;-86
2022/09/02 10:56:16;;;;;;;;;;;;;;;;;;4975312;28;7180;-86
2022/09/02 10:59:04;;;;;;;;;;;;;;;;;;4956650;28;7040;-87
2022/09/02 11:01:50;;;;;;;;;;;;;;;;;;4959497;28;7443;-87
2022/09/02 11:04:21;;;;;;;;;;;;;;;;;;4958397;28;8503;-86
2022/09/02 11:06:50;;;;;;;;;;;;;;;;;;4975023;28;7465;-86
2022/09/02 11:09:21;;;;;;;;;;;;;;;;;;4959175;28;8807;-86
2022/09/02 11:12:05;;;;;;;;;;;;;;;;;;4958646;28;7076;-86
2022/09/02 11:14:36;;;;;;;;;;;;;;;;;;4993258;28;7083;-86
2022/09/02 11:17:12;;;;;;;;;;;;;;;;;;4998894;28;7046;-86
2022/09/02 11:19:58;;;;;;;;;;;;;;;;;;4997936;28;7169;-86
2022/09/02 11:22:29;;;;;;;;;;;;;;;;;;4978354;28;8445;-86
2022/09/02 11:24:59;;;;;;;;;;;;;;;;;;4998073;28;7466;-85
2022/09/02 11:27:38;;;;;;;;;;;;;;;;;;4998417;28;8339;-88
2022/09/02 11:30:12;;;;;;;;;;;;;;;;;;4997923;28;8776;-87
2022/09/02 11:32:44;;;;;;;;;;;;;;;;;;4998147;28;8536;-86
2022/09/02 11:35:15;;;;;;;;;;;;;;;;;;4997869;28;8472;-86
2022/09/02 11:37:49;;;;;;;;;;;;;;;;;;4998508;28;8359;-86
2022/09/02 11:40:21;;;;;;;;;;;;;;;;;;4997824;28;9260;-85
2022/09/02 11:43:03;;;;;;;;;;;;;;;;;;4997874;28;7381;-85
2022/09/02 11:45:47;;;;;;;;;;;;;;;;;;4997747;28;8342;-85
2022/09/02 11:48:28;;;;;;;;;;;;;;;;;;5014254;28;7140;-86
2022/09/02 11:50:56;;;;;;;;;;;;;;;;;;4998290;28;7076;-87
2022/09/02 11:53:27;;;;;;;;;;;;;;;;;;4997615;28;8939;-83
2022/09/02 11:55:55;;;;;;;;;;;;;;;;;;4998180;28;8414;-86
2022/09/02 11:58:30;;;;;;;;;;;;;;;;;;4997664;28;8457;-86
2022/09/02 12:00:57;;;;;;;;;;;;;;;;;;4997483;28;7189;-87
2022/09/02 12:03:30;;;;;;;;;;;;;;;;;;4997412;28;7219;-85
2022/09/02 12:06:08;;;;;;;;;;;;;;;;;;4997845;28;9344;-86
2022/09/02 12:08:35;;;;;;;;;;;;;;;;;;4997658;28;8440;-87
2022/09/02 12:11:06;;;;;;;;;;;;;;;;;;4997380;28;8436;-87
2022/09/02 12:13:34;;;;;;;;;;;;;;;;;;4996879;28;7089;-87
2022/09/02 12:16:12;;;;;;;;;;;;;;;;;;4997783;28;8449;-86
2022/09/02 12:18:39;;;;;;;;;;;;;;;;;;4995597;28;7228;-84
2022/09/02 12:21:07;;;;;;;;;;;;;;;;;;4995285;28;7380;-85
2022/09/02 12:23:51;;;;;;;;;;;;;;;;;;4996779;28;8475;-83
2022/09/02 12:26:40;;;;;;;;;;;;;;;;;;4996727;28;7209;-85
2022/09/02 12:29:11;;;;;;;;;;;;;;;;;;4996949;28;8467;-85
2022/09/02 12:31:42;;;;;;;;;;;;;;;;;;4996937;28;8432;-85
2022/09/02 12:34:37;;;;;;;;;;;;;;;;;;4996673;28;8436;-86
2022/09/02 12:37:03;;;;;;;;;;;;;;;;;;4987605;28;7213;-85
2022/09/02 12:39:29;;;;;;;;;;;;;;;;;;4997216;28;7068;-85
2022/09/02 12:42:09;;;;;;;;;;;;;;;;;;4996637;28;7301;-84
2022/09/02 12:44:40;;;;;;;;;;;;;;;;;;4997068;28;8549;-86
2022/09/02 12:47:09;;;;;;;;;;;;;;;;;;4997186;28;8451;-85
2022/09/02 12:49:41;;;;;;;;;;;;;;;;;;4997638;28;7437;-84
2022/09/02 12:52:11;;;;;;;;;;;;;;;;;;4997121;28;8341;-86
2022/09/02 12:54:47;;;;;;;;;;;;;;;;;;4997126;28;7540;-84
2022/09/02 12:57:15;;;;;;;;;;;;;;;;;;4997110;28;7766;-85
2022/09/02 12:59:42;;;;;;;;;;;;;;;;;;4997001;28;7076;-84
2022/09/02 13:02:26;;;;;;;;;;;;;;;;;;4996531;28;8638;-85
2022/09/02 13:05:14;;;;;;;;;;;;;;;;;;5012890;28;9521;-85
2022/09/02 13:07:57;;;;;;;;;;;;;;;;;;4996251;28;8441;-84
2022/09/02 13:10:31;;;;;;;;;;;;;;;;;;4996434;28;7379;-85
2022/09/02 13:13:08;;;;;;;;;;;;;;;;;;4996557;28;7210;-85
2022/09/02 13:15:40;;;;;;;;;;;;;;;;;;4995702;28;7075;-85
2022/09/02 13:18:24;;;;;;;;;;;;;;;;;;4997116;28;7157;-85
2022/09/02 13:21:05;;;;;;;;;;;;;;;;;;5009671;28;8775;-86
2022/09/02 13:23:31;;;;;;;;;;;;;;;;;;4993680;28;8465;-86
2022/09/02 13:26:08;;;;;;;;;;;;;;;;;;5010378;28;8548;-86
2022/09/02 13:28:46;;;;;;;;;;;;;;;;;;5013891;28;7096;-86
2022/09/02 13:31:11;;;;;;;;;;;;;;;;;;5013333;28;7184;-86
2022/09/02 13:33:37;;;;;;;;;;;;;;;;;;5013074;28;8534;-89
2022/09/02 13:36:03;;;;;;;;;;;;;;;;;;4996475;28;7279;-84
2022/09/02 13:38:31;;;;;;;;;;;;;;;;;;4995465;28;8484;-83
2022/09/02 13:40:57;;;;;;;;;;;;;;;;;;4996060;28;7202;-83
2022/09/02 13:43:25;;;;;;;;;;;;;;;;;;4996299;28;8602;-85
2022/09/02 13:45:53;;;;;;;;;;;;;;;;;;4996861;28;8851;-86
2022/09/02 13:48:24;;;;;;;;;;;;;;;;;;4996325;28;7050;-85
2022/09/02 13:50:52;;;;;;;;;;;;;;;;;;4996417;28;8422;-85
2022/09/02 13:53:30;;;;;;;;;;;;;;;;;;4996426;28;7122;-86
2022/09/02 13:55:58;;;;;;;;;;;;;;;;;;5012693;28;8442;-86
2022/09/02 13:58:29;;;;;;;;;;;;;;;;;;4997319;28;7074;-85
2022/09/02 14:00:57;;;;;;;;;;;;;;;;;;5012665;28;7311;-85
2022/09/02 14:03:24;;;;;;;;;;;;;;;;;;4996359;28;7092;-87
2022/09/02 14:05:51;;;;;;;;;;;;;;;;;;4996626;28;8463;-85
2022/09/02 14:08:21;;;;;;;;;;;;;;;;;;4996342;28;7439;-85
2022/09/02 14:10:50;;;;;;;;;;;;;;;;;;4996192;28;8456;-85
2022/09/02 14:13:17;;;;;;;;;;;;;;;;;;4996380;28;7296;-85
2022/09/02 14:15:43;;;;;;;;;;;;;;;;;;4996118;28;8488;-86
2022/09/02 14:18:13;;;;;;;;;;;;;;;;;;4996229;28;8415;-85
2022/09/02 14:20:55;;;;;;;;;;;;;;;;;;5012101;28;8490;-86
2022/09/02 14:23:22;;;;;;;;;;;;;;;;;;4996176;28;7215;-84
2022/09/02 14:25:50;;;;;;;;;;;;;;;;;;4995578;28;7664;-85
2022/09/02 14:28:22;;;;;;;;;;;;;;;;;;4996098;28;7480;-86
2022/09/02 14:31:03;;;;;;;;;;;;;;;;;;4995449;28;8758;-83
2022/09/02 14:33:42;;;;;;;;;;;;;;;;;;4996137;28;8409;-84
2022/09/02 14:36:27;;;;;;;;;;;;;;;;;;4996192;28;8948;-85
2022/09/02 14:38:54;;;;;;;;;;;;;;;;;;4994822;28;9442;-82
2022/09/02 14:41:29;;;;;;;;;;;;;;;;;;4995336;28;8470;-82
2022/09/02 14:44:14;;;;;;;;;;;;;;;;;;4995548;28;8707;-84
2022/09/02 14:46:49;;;;;;;;;;;;;;;;;;4995463;28;8511;-84
2022/09/02 14:49:24;;;;;;;;;;;;;;;;;;4995622;28;8452;-83
2022/09/02 14:51:53;;;;;;;;;;;;;;;;;;4995418;28;8465;-85
2022/09/02 14:54:33;;;;;;;;;;;;;;;;;;4990965;28;8455;-81
2022/09/02 14:56:59;;;;;;;;;;;;;;;;;;5011470;28;8663;-84
2022/09/02 14:59:24;;;;;;;;;;;;;;;;;;4994758;28;8396;-85
2022/09/02 15:01:52;;;;;;;;;;;;;;;;;;4994475;28;7105;-83
2022/09/02 15:04:18;;;;;;;;;;;;;;;;;;4994492;28;7478;-86
2022/09/02 15:06:45;;;;;;;;;;;;;;;;;;4994631;28;8472;-86
2022/09/02 15:09:11;;;;;;;;;;;;;;;;;;4995821;28;7214;-85
2022/09/02 15:11:38;;;;;;;;;;;;;;;;;;4995421;28;8545;-84
2022/09/02 15:14:04;;;;;;;;;;;;;;;;;;4995180;28;7114;-82
2022/09/02 15:16:30;;;;;;;;;;;;;;;;;;4995454;28;8591;-82
2022/09/02 15:18:55;;;;;;;;;;;;;;;;;;4995086;28;8388;-84
2022/09/02 15:21:21;;;;;;;;;;;;;;;;;;4997966;28;7048;-83
2022/09/02 15:23:48;;;;;;;;;;;;;;;;;;4997945;28;8812;-85
2022/09/02 15:26:14;;;;;;;;;;;;;;;;;;4997220;28;8684;-84
2022/09/02 15:28:40;;;;;;;;;;;;;;;;;;4997885;28;8776;-82
2022/09/02 15:31:06;;;;;;;;;;;;;;;;;;4998715;28;7236;-83
2022/09/02 15:33:32;;;;;;;;;;;;;;;;;;4997674;28;8076;-84
2022/09/02 15:36:05;;;;;;;;;;;;;;;;;;4997711;28;8505;-84
2022/09/02 15:38:31;;;;;;;;;;;;;;;;;;4997697;28;8474;-84
2022/09/02 15:41:08;;;;;;;;;;;;;;;;;;4997661;28;7322;-85
2022/09/02 15:43:34;;;;;;;;;;;;;;;;;;4997434;28;6858;-84
2022/09/02 15:45:59;;;;;;;;;;;;;;;;;;4997489;28;8700;-84
2022/09/02 15:48:25;;;;;;;;;;;;;;;;;;4996476;28;8542;-84
2022/09/02 15:50:50;;;;;;;;;;;;;;;;;;4997288;28;8526;-85
2022/09/02 15:53:16;;;;;;;;;;;;;;;;;;4997460;28;8441;-85
2022/09/02 15:55:41;;;;;;;;;;;;;;;;;;4996959;28;8716;-84
2022/09/02 15:58:07;;;;;;;;;;;;;;;;;;4997472;28;7313;-84
2022/09/02 16:00:33;;;;;;;;;;;;;;;;;;4997403;28;8610;-85
2022/09/02 16:03:00;;;;;;;;;;;;;;;;;;4996688;28;7200;-84
2022/09/02 16:05:25;;;;;;;;;;;;;;;;;;4997570;28;7073;-84
2022/09/02 16:07:53;;;;;;;;;;;;;;;;;;4997130;28;8187;-86
2022/09/02 16:10:18;;;;;;;;;;;;;;;;;;4996631;28;7308;-85
2022/09/02 16:12:44;;;;;;;;;;;;;;;;;;4997119;28;7194;-85
2022/09/02 16:15:10;;;;;;;;;;;;;;;;;;4997171;28;7054;-85
2022/09/02 16:17:35;;;;;;;;;;;;;;;;;;4996634;28;8636;-85
2022/09/02 16:20:01;;;;;;;;;;;;;;;;;;4993032;28;8977;-83
2022/09/02 16:22:27;;;;;;;;;;;;;;;;;;4993213;28;8546;-84
2022/09/02 16:24:52;;;;;;;;;;;;;;;;;;4993482;28;8457;-84
2022/09/02 16:27:50;;;;;;;;;;;;;;;;;;4993530;28;7183;-83
2022/09/02 16:30:03;;;;;;;;;;;;;;;;;;4994474;28;7179;-83
2022/09/02 16:32:28;;;;;;;;;;;;;;;;;;4993539;28;9424;-82
2022/09/02 16:34:56;;;;;;;;;;;;;;;;;;4993198;28;8838;-87
2022/09/02 16:37:22;;;;;;;;;;;;;;;;;;4993569;28;8790;-85
2022/09/02 16:39:48;;;;;;;;;;;;;;;;;;4993873;28;7150;-87
2022/09/02 16:42:13;;;;;;;;;;;;;;;;;;4993173;28;7156;-85
2022/09/02 16:44:40;;;;;;;;;;;;;;;;;;4993134;28;7098;-85
2022/09/02 16:47:06;;;;;;;;;;;;;;;;;;4993377;28;8493;-87
2022/09/02 16:49:33;;;;;;;;;;;;;;;;;;4994166;28;8658;-86
2022/09/02 16:51:59;;;;;;;;;;;;;;;;;;4994261;28;8831;-84
2022/09/02 16:54:30;;;;;;;;;;;;;;;;;;4993601;28;7042;-84
2022/09/02 16:56:56;;;;;;;;;;;;;;;;;;4993672;28;8486;-85
2022/09/02 16:59:21;;;;;;;;;;;;;;;;;;4993849;28;8816;-84
2022/09/02 17:01:47;;;;;;;;;;;;;;;;;;4997478;28;8413;-84
2022/09/02 17:04:12;;;;;;;;;;;;;;;;;;4997568;28;8440;-84
2022/09/02 17:06:38;;;;;;;;;;;;;;;;;;4997781;28;8683;-83
2022/09/02 17:09:03;;;;;;;;;;;;;;;;;;4997341;28;8443;-84
2022/09/02 17:11:35;;;;;;;;;;;;;;;;;;4997259;28;8372;-84
2022/09/02 17:14:02;;;;;;;;;;;;;;;;;;4997340;28;8752;-84
2022/09/02 17:16:30;;;;;;;;;;;;;;;;;;4997745;28;7072;-85
2022/09/02 17:18:56;;;;;;;;;;;;;;;;;;4997649;28;7104;-85